Dover, MN

8:54 AM CST on November 28, 2014 (GMT -0600)
MNDOT Jct CR 7 I-90 Mile Post 226 | Change Station
CLOSE
Current Station
Personal Weather Station
Location: Dover, MN
Elevation: 1309 ft
Nearby Weather Stations

Elev 1309 ft 43.96 °N, 92.21 °W | Updated 28 minutes ago

Partly Cloudy
Partly Cloudy
15 °F
Feels Like 0 °F
N
15
Wind Variable Wind from SSE
Gusts 22.0 mph

Today
High -- | Low -- °F
--% Chance of Precip.
Yesterday
High -- | Low -- °F
Precip. -- in
7:19 AM 4:33 PM
Waxing Crescent, 41% visible
Pressure 29.98 in
Visibility 10.0 miles
Clouds Clear
Windchill 0 °F
Dew Point 12 °F
Humidity 87%
Rainfall 0.00 in
Snow Depth Not available.
UV 0 out of 12
Pollen .10 out of 12
Air Quality Not available.
Flu Activity Not available.
METAR K9MN 281434Z AUTO 13009G18KT 10SM CLR M09/M13 A2998 RMK AO1 T10891135

More Conditions Fewer Conditions

Pressure 29.98 in
Visibility 10.0 miles
Clouds Clear
Windchill 0 °F
Dew Point 12 °F
Humidity 87%
Rainfall 0.00 in
Snow Depth Not available.
UV 0 out of 12
Pollen .10 out of 12
Air Quality Not available.
Flu Activity Not available.
METAR K9MN 281434Z AUTO 13009G18KT 10SM CLR M09/M13 A2998 RMK AO1 T10891135

More Conditions Fewer Conditions

10-Day Weather Forecast

Almanac

Astronomy

Nov. 28, 2014 Rise Set
Actual Time
Civil Twilight
Nautical Twilight
Astronomical Twilight
Moon
Length of Visible Light
Length of Day
Tomorrow will be .
, % of the Moon is Illuminated

Today's Extremes

State Highs State Lows

Community

WunderPhotos

Upload Photos

1,774,222 photos uploaded!

WunderBlogs® & News

Nearby

Air Quality

  Air Quality AQ Index Pollutant
Not available.

Snow Depth

Station Depth Elevation

Earthquake Activity

City Distance Mag. Time & Date
Minimum magnitude displayed is 2.5.

Coastal Water Temperatures

Place Temperature

Nearby Weather Stations